createdAt,value
2022-07-31T00:01:10.227Z,97591.69
2022-07-31T00:04:13.149Z,97593.83
2022-07-31T00:07:16.056Z,97593.18
2022-07-31T00:10:18.984Z,97592.21
2022-07-31T00:13:57.159Z,97593.86
2022-07-31T00:16:45.193Z,97588.69
2022-07-31T00:19:48.115Z,97589.71
2022-07-31T00:22:51.033Z,97593.55
2022-07-31T00:25:54.090Z,97586.75
2022-07-31T00:28:56.939Z,97586.44
2022-07-31T00:31:59.767Z,97583.19
2022-07-31T00:35:02.923Z,97581.14
2022-07-31T00:38:26.319Z,97577.33
2022-07-31T00:41:45.376Z,97577.25
2022-07-31T00:44:49.056Z,97582.45
2022-07-31T00:47:55.789Z,97581.77
2022-07-31T00:50:58.958Z,97585.70
2022-07-31T00:54:02.226Z,97585.03
2022-07-31T00:57:06.631Z,97587.79
2022-07-31T01:00:10.647Z,97589.64
2022-07-31T01:03:14.459Z,97587.21
2022-07-31T01:06:17.687Z,97590.85
2022-07-31T01:09:20.681Z,97593.79
2022-07-31T01:16:22.042Z,97596.36
2022-07-31T01:19:42.718Z,97603.06
2022-07-31T01:23:43.078Z,97605.98
2022-07-31T01:28:07.769Z,97610.08
2022-07-31T01:31:27.462Z,97604.64
2022-07-31T01:34:44.846Z,97607.09
2022-07-31T01:38:01.888Z,97606.01
2022-07-31T01:41:10.624Z,97608.71
2022-07-31T01:44:16.378Z,97608.23
2022-07-31T01:47:21.636Z,97610.15
2022-07-31T01:50:43.981Z,97610.11
2022-07-31T01:53:48.963Z,97606.40
2022-07-31T01:56:52.762Z,97603.88
2022-07-31T01:59:58.588Z,97604.23
2022-07-31T02:03:18.465Z,97605.44
2022-07-31T02:06:43.687Z,97606.70
2022-07-31T02:09:52.258Z,97605.03
2022-07-31T02:13:02.957Z,97605.09
2022-07-31T02:16:07.039Z,97604.20
2022-07-31T02:19:12.436Z,97599.20
2022-07-31T02:22:15.534Z,97598.71
2022-07-31T02:25:18.571Z,97599.84
2022-07-31T02:28:22.859Z,97593.80
2022-07-31T02:31:26.480Z,97596.35
2022-07-31T02:34:31.762Z,97593.59
2022-07-31T02:37:37.619Z,97593.21
2022-07-31T02:40:42.314Z,97592.89
2022-07-31T02:43:47.213Z,97592.45
2022-07-31T02:46:56.389Z,97599.09
2022-07-31T02:49:59.712Z,97598.31
2022-07-31T02:53:03.786Z,97598.52
2022-07-31T02:56:09.428Z,97591.90
2022-07-31T02:59:13.768Z,97590.48
2022-07-31T03:02:45.852Z,97592.65
2022-07-31T03:05:48.936Z,97593.63
2022-07-31T03:08:51.836Z,97590.66
2022-07-31T03:11:58.560Z,97593.78
2022-07-31T03:15:14.610Z,97594.61
2022-07-31T03:18:21.858Z,97596.02
2022-07-31T03:21:25.816Z,97597.44
2022-07-31T03:24:28.913Z,97596.82
2022-07-31T03:27:31.931Z,97598.11
2022-07-31T03:30:35.252Z,97600.39
2022-07-31T03:33:38.404Z,97602.28
2022-07-31T03:36:41.447Z,97604.48
2022-07-31T03:39:44.418Z,97602.61
2022-07-31T03:42:50.337Z,97604.83
2022-07-31T03:45:53.946Z,97606.99
2022-07-31T03:48:57.242Z,97607.98
2022-07-31T03:52:02.147Z,97610.98
2022-07-31T03:55:06.796Z,97615.52
2022-07-31T03:58:10.269Z,97612.73
2022-07-31T04:01:15.630Z,97613.90
2022-07-31T04:04:18.853Z,97613.59
2022-07-31T04:07:33.868Z,97609.27
2022-07-31T04:10:37.357Z,97613.79
2022-07-31T04:13:40.900Z,97615.89
2022-07-31T04:16:43.917Z,97612.86
2022-07-31T04:19:46.918Z,97611.83
2022-07-31T04:22:50.202Z,97611.13
2022-07-31T04:26:10.534Z,97608.98
2022-07-31T04:29:30.450Z,97611.31
2022-07-31T04:32:33.364Z,97608.64
2022-07-31T04:35:40.411Z,97612.31
2022-07-31T04:38:43.628Z,97614.97
2022-07-31T04:41:47.174Z,97616.15
2022-07-31T04:44:50.476Z,97622.35
2022-07-31T04:47:53.404Z,97629.39
2022-07-31T04:50:56.513Z,97634.25
2022-07-31T04:53:59.509Z,97635.52
2022-07-31T04:57:05.180Z,97636.02
2022-07-31T05:00:10.469Z,97640.17
2022-07-31T05:03:13.479Z,97645.46
2022-07-31T05:06:16.859Z,97647.21
2022-07-31T05:09:25.772Z,97654.04
2022-07-31T05:12:34.936Z,97659.37
2022-07-31T05:15:37.861Z,97666.30
2022-07-31T05:18:40.943Z,97670.13
2022-07-31T05:22:05.343Z,97672.66
2022-07-31T05:25:09.068Z,97675.69
2022-07-31T05:28:12.231Z,97676.61
2022-07-31T05:31:16.758Z,97679.70
2022-07-31T05:34:19.660Z,97684.10
2022-07-31T05:37:22.544Z,97687.64
2022-07-31T05:40:25.472Z,97686.91
2022-07-31T05:43:46.930Z,97690.48
2022-07-31T05:49:58.352Z,97701.27
2022-07-31T05:53:01.484Z,97701.88
2022-07-31T05:56:30.547Z,97704.45
2022-07-31T05:59:35.579Z,97702.81
2022-07-31T06:02:39.518Z,97703.92
2022-07-31T06:06:05.650Z,97708.77
2022-07-31T06:09:08.546Z,97707.53
2022-07-31T06:12:13.893Z,97711.34
2022-07-31T06:15:16.781Z,97715.06
2022-07-31T06:18:19.885Z,97712.81
2022-07-31T06:24:26.041Z,97716.80
2022-07-31T06:27:33.594Z,97721.67
2022-07-31T06:30:38.051Z,97721.73
2022-07-31T06:33:41.008Z,97723.55
2022-07-31T06:36:51.619Z,97721.04
2022-07-31T06:39:57.947Z,97726.50
2022-07-31T06:43:29.535Z,97719.95
2022-07-31T06:46:52.393Z,97724.77
2022-07-31T06:50:16.131Z,97724.87
2022-07-31T06:53:31.170Z,97725.92
2022-07-31T06:56:35.548Z,97719.86
2022-07-31T06:59:39.835Z,97714.94
2022-07-31T07:02:43.556Z,97721.94
2022-07-31T07:05:46.754Z,97723.08
2022-07-31T07:08:50.548Z,97720.83
2022-07-31T07:11:54.953Z,97720.21
2022-07-31T07:14:58.257Z,97725.11
2022-07-31T07:18:01.437Z,97726.14
2022-07-31T07:21:10.601Z,97728.91
2022-07-31T07:24:14.555Z,97727.88
2022-07-31T07:27:33.616Z,97726.00
2022-07-31T07:30:38.360Z,97725.45
2022-07-31T07:33:43.096Z,97722.80
2022-07-31T07:36:50.410Z,97728.21
2022-07-31T07:40:03.812Z,97731.79
2022-07-31T07:43:07.142Z,97733.65
2022-07-31T07:46:10.134Z,97735.98
2022-07-31T07:49:16.007Z,97736.38
2022-07-31T07:52:29.601Z,97737.79
2022-07-31T07:55:52.615Z,97738.29
2022-07-31T07:59:14.902Z,97737.71
2022-07-31T08:03:50.310Z,97740.14
2022-07-31T08:06:16.701Z,97739.02
2022-07-31T08:09:21.258Z,97742.23
2022-07-31T08:12:50.939Z,97742.67
2022-07-31T08:16:06.197Z,97745.79
2022-07-31T08:19:14.260Z,97748.55
2022-07-31T08:22:18.177Z,97749.69
2022-07-31T08:25:21.348Z,97747.27
2022-07-31T08:28:26.738Z,97751.80
2022-07-31T08:31:29.800Z,97755.35
2022-07-31T08:34:52.032Z,97751.99
2022-07-31T08:38:03.490Z,97748.66
2022-07-31T08:41:15.124Z,97751.98
2022-07-31T08:44:18.035Z,97751.05
2022-07-31T08:47:33.475Z,97751.44
2022-07-31T08:50:40.578Z,97752.83
2022-07-31T08:53:51.344Z,97755.46
2022-07-31T08:56:55.863Z,97757.29
2022-07-31T08:59:58.740Z,97758.55
2022-07-31T09:03:03.481Z,97759.36
2022-07-31T09:06:27.656Z,97759.27
2022-07-31T09:09:45.238Z,97756.09
2022-07-31T09:12:56.011Z,97758.23
2022-07-31T09:16:01.441Z,97754.47
2022-07-31T09:19:52.179Z,97757.98
2022-07-31T09:22:31.493Z,97758.43
2022-07-31T09:25:36.444Z,97762.51
2022-07-31T09:28:45.115Z,97770.11
2022-07-31T09:31:48.156Z,97773.11
2022-07-31T09:35:15.626Z,97774.88
2022-07-31T09:38:19.261Z,97772.81
2022-07-31T09:41:58.288Z,97774.87
2022-07-31T09:45:25.846Z,97774.77
2022-07-31T09:48:29.746Z,97775.39
2022-07-31T09:51:42.303Z,97774.30
2022-07-31T09:54:46.220Z,97780.14
2022-07-31T09:58:01.497Z,97779.13
2022-07-31T10:01:11.065Z,97779.06
2022-07-31T10:04:16.975Z,97775.02
2022-07-31T10:07:32.080Z,97774.90
2022-07-31T10:10:46.730Z,97777.42
2022-07-31T10:14:15.710Z,97774.04
2022-07-31T10:17:28.646Z,97776.51
2022-07-31T10:20:57.318Z,97778.73
2022-07-31T10:24:27.961Z,97777.55
2022-07-31T10:27:32.955Z,97782.95
2022-07-31T10:30:46.403Z,97786.41
2022-07-31T10:33:49.965Z,97785.77
2022-07-31T10:37:31.769Z,97789.54
2022-07-31T10:41:09.994Z,97788.52
2022-07-31T10:44:38.663Z,97789.48
2022-07-31T10:47:55.935Z,97791.86
2022-07-31T10:51:20.294Z,97792.98
2022-07-31T10:55:02.006Z,97799.84
2022-07-31T10:58:20.920Z,97802.48
2022-07-31T11:01:26.972Z,97807.33
2022-07-31T11:04:50.504Z,97807.19
2022-07-31T11:08:07.966Z,97808.98
2022-07-31T11:11:34.255Z,97812.99
2022-07-31T11:14:58.266Z,97813.90
2022-07-31T11:18:27.530Z,97814.02
2022-07-31T11:21:42.377Z,97816.30
2022-07-31T11:24:58.734Z,97816.27
2022-07-31T11:28:16.146Z,97818.61
2022-07-31T11:31:19.275Z,97819.73
2022-07-31T11:34:22.161Z,97824.52
2022-07-31T11:37:57.049Z,97825.10
2022-07-31T11:40:56.021Z,97827.11
2022-07-31T11:43:58.955Z,97825.51
2022-07-31T11:47:02.343Z,97828.19
2022-07-31T11:50:06.065Z,97825.81
2022-07-31T11:53:09.336Z,97831.10
2022-07-31T11:56:12.407Z,97830.05
2022-07-31T11:59:45.182Z,97831.02
2022-07-31T12:02:43.181Z,97830.24
2022-07-31T12:05:48.246Z,97832.60
2022-07-31T12:08:51.445Z,97828.96
2022-07-31T12:11:55.094Z,97830.64
2022-07-31T12:14:58.031Z,97835.65
2022-07-31T12:18:03.091Z,97837.46
2022-07-31T12:21:06.104Z,97844.20
2022-07-31T12:24:13.764Z,97846.70
2022-07-31T12:27:18.450Z,97853.02
2022-07-31T12:30:29.864Z,97852.02
2022-07-31T12:33:43.563Z,97853.38
2022-07-31T12:36:57.365Z,97855.66
2022-07-31T12:40:01.394Z,97854.52
2022-07-31T12:43:04.806Z,97853.63
2022-07-31T12:46:07.712Z,97850.54
2022-07-31T12:49:10.683Z,97850.22
2022-07-31T12:52:13.785Z,97855.45
2022-07-31T12:55:17.177Z,97856.28
2022-07-31T12:58:20.552Z,97855.42
2022-07-31T13:01:23.737Z,97856.11
2022-07-31T13:04:26.669Z,97860.37
2022-07-31T13:07:30.099Z,97860.70
2022-07-31T13:10:33.073Z,97866.58
2022-07-31T13:13:35.954Z,97863.86
2022-07-31T13:16:38.860Z,97864.17
2022-07-31T13:19:41.720Z,97868.10
2022-07-31T13:22:44.994Z,97865.94
2022-07-31T13:25:47.915Z,97867.98
2022-07-31T13:28:51.155Z,97865.61
2022-07-31T13:31:55.408Z,97864.20
2022-07-31T13:35:24.053Z,97866.39
2022-07-31T13:38:21.551Z,97862.64
2022-07-31T13:41:24.476Z,97864.51
2022-07-31T13:44:27.525Z,97860.47
2022-07-31T13:47:50.854Z,97860.57
2022-07-31T13:50:53.272Z,97867.59
2022-07-31T13:53:56.522Z,97863.49
2022-07-31T13:56:59.429Z,97861.10
2022-07-31T14:00:02.311Z,97862.46
2022-07-31T14:03:07.830Z,97863.95
2022-07-31T14:06:10.775Z,97864.86
2022-07-31T14:09:14.280Z,97865.70
2022-07-31T14:12:17.214Z,97861.67
2022-07-31T14:15:20.280Z,97858.79
2022-07-31T14:18:24.215Z,97864.09
2022-07-31T14:21:27.171Z,97865.60
2022-07-31T14:24:31.401Z,97869.67
2022-07-31T14:27:38.677Z,97866.11
2022-07-31T14:30:46.439Z,97863.23
2022-07-31T14:33:52.573Z,97865.54
2022-07-31T14:36:55.428Z,97869.23
2022-07-31T14:39:58.480Z,97870.31
2022-07-31T14:43:02.916Z,97870.13
2022-07-31T14:46:06.794Z,97873.59
2022-07-31T14:49:10.360Z,97880.17
2022-07-31T14:52:13.334Z,97880.46
2022-07-31T14:55:16.237Z,97887.98
2022-07-31T14:58:19.162Z,97885.82
2022-07-31T15:01:22.084Z,97892.68
2022-07-31T15:04:29.032Z,97895.14
2022-07-31T15:07:35.720Z,97900.59
2022-07-31T15:10:40.001Z,97899.80
2022-07-31T15:13:43.036Z,97904.71
2022-07-31T15:16:49.686Z,97905.81
2022-07-31T15:19:53.483Z,97903.23
2022-07-31T15:22:58.166Z,97906.02
2022-07-31T15:26:01.155Z,97905.98
2022-07-31T15:29:04.199Z,97915.61
2022-07-31T15:32:07.811Z,97912.55
2022-07-31T15:35:12.549Z,97910.50
2022-07-31T15:38:15.796Z,97908.53
2022-07-31T15:41:19.227Z,97911.06
2022-07-31T15:44:22.153Z,97912.51
2022-07-31T15:47:25.180Z,97917.46
2022-07-31T15:50:28.125Z,97915.76
2022-07-31T15:53:38.982Z,97914.36
2022-07-31T15:56:42.363Z,97907.95
2022-07-31T15:59:45.247Z,97907.52
2022-07-31T16:02:49.530Z,97902.01
2022-07-31T16:05:56.168Z,97898.95
2022-07-31T16:08:59.306Z,97905.17
2022-07-31T16:12:03.685Z,97905.20
2022-07-31T16:15:09.507Z,97908.34
2022-07-31T16:18:18.056Z,97908.12
2022-07-31T16:21:21.673Z,97908.63
2022-07-31T16:24:24.596Z,97902.16
2022-07-31T16:27:28.043Z,97901.45
2022-07-31T16:30:31.807Z,97899.80
2022-07-31T16:33:34.891Z,97897.23
2022-07-31T16:36:38.195Z,97891.12
2022-07-31T16:39:41.094Z,97893.46
2022-07-31T16:42:46.172Z,97889.71
2022-07-31T16:45:49.939Z,97883.86
2022-07-31T16:48:53.048Z,97884.09
2022-07-31T16:51:56.049Z,97885.73
2022-07-31T16:54:58.935Z,97884.59
2022-07-31T16:58:01.901Z,97887.75
2022-07-31T17:01:04.963Z,97886.48
2022-07-31T17:04:07.974Z,97890.92
2022-07-31T17:07:11.778Z,97894.02
2022-07-31T17:10:15.854Z,97891.20
2022-07-31T17:13:19.632Z,97892.59
2022-07-31T17:16:22.738Z,97897.04
2022-07-31T17:19:41.172Z,97899.42
2022-07-31T17:22:48.378Z,97901.42
2022-07-31T17:25:57.713Z,97906.32
2022-07-31T17:29:00.710Z,97907.27
2022-07-31T17:32:04.255Z,97905.71
2022-07-31T17:35:08.885Z,97910.19
2022-07-31T17:38:16.656Z,97909.06
2022-07-31T17:41:25.437Z,97911.80
2022-07-31T17:44:28.981Z,97912.96
2022-07-31T17:47:33.799Z,97912.53
2022-07-31T17:50:37.217Z,97910.91
2022-07-31T17:53:54.603Z,97917.73
2022-07-31T17:56:59.368Z,97920.63
2022-07-31T18:00:02.371Z,97924.80
2022-07-31T18:03:08.071Z,97925.20
2022-07-31T18:06:11.258Z,97921.05
2022-07-31T18:09:16.836Z,97924.80
2022-07-31T18:12:19.832Z,97929.84
2022-07-31T18:15:22.803Z,97931.21
2022-07-31T18:18:38.098Z,97936.16
2022-07-31T18:21:41.261Z,97941.67
2022-07-31T18:24:44.665Z,97945.14
2022-07-31T18:27:47.692Z,97944.20
2022-07-31T18:30:50.592Z,97946.45
2022-07-31T18:33:53.570Z,97951.66
2022-07-31T18:36:59.400Z,97956.92
2022-07-31T18:40:03.840Z,97954.58
2022-07-31T18:43:09.773Z,97964.24
2022-07-31T18:46:12.839Z,97962.06
2022-07-31T18:51:02.914Z,97968.86
2022-07-31T18:52:43.312Z,97971.14
2022-07-31T18:55:47.316Z,97973.11
2022-07-31T18:58:50.747Z,97974.11
2022-07-31T19:01:53.710Z,97968.52
2022-07-31T19:04:59.243Z,97969.31
2022-07-31T19:08:05.375Z,97969.66
2022-07-31T19:11:08.525Z,97969.83
2022-07-31T19:14:12.806Z,97972.31
2022-07-31T19:17:19.773Z,97976.30
2022-07-31T19:20:57.416Z,97977.23
2022-07-31T19:23:50.012Z,97974.55
2022-07-31T19:26:54.985Z,97975.79
2022-07-31T19:29:57.890Z,97974.77
2022-07-31T19:33:01.429Z,97978.73
2022-07-31T19:36:04.980Z,97982.73
2022-07-31T19:39:12.426Z,97985.19
2022-07-31T19:42:15.784Z,97983.33
2022-07-31T19:45:21.398Z,97980.80
2022-07-31T19:48:24.400Z,97985.48
2022-07-31T19:51:27.251Z,97988.73
2022-07-31T19:54:30.715Z,97991.45
2022-07-31T19:57:34.237Z,97992.27
2022-07-31T20:00:37.129Z,97989.59
2022-07-31T20:03:40.177Z,97988.64
2022-07-31T20:06:43.647Z,97988.05
2022-07-31T20:09:48.195Z,97987.01
2022-07-31T20:12:51.527Z,97982.55
2022-07-31T20:15:55.214Z,97984.95
2022-07-31T20:18:58.493Z,97985.75
2022-07-31T20:22:01.847Z,97983.33
2022-07-31T20:25:12.066Z,97987.55
2022-07-31T20:28:23.527Z,97987.41
2022-07-31T20:31:26.449Z,97982.39
2022-07-31T20:34:29.398Z,97985.98
2022-07-31T20:37:32.675Z,97987.69
2022-07-31T20:40:39.157Z,97988.69
2022-07-31T20:43:42.801Z,97989.62
2022-07-31T20:46:46.116Z,97990.45
2022-07-31T20:49:49.814Z,97988.29
2022-07-31T20:52:53.154Z,97989.18
2022-07-31T20:55:56.876Z,97991.10
2022-07-31T20:59:00.092Z,97988.51
2022-07-31T21:02:03.517Z,97988.21
2022-07-31T21:05:07.246Z,97985.71
2022-07-31T21:08:11.470Z,97981.33
2022-07-31T21:11:14.838Z,97981.02
2022-07-31T21:14:18.094Z,97976.73
2022-07-31T21:17:21.398Z,97981.06
2022-07-31T21:20:31.302Z,97982.04
2022-07-31T21:23:51.406Z,97981.75
2022-07-31T21:26:59.630Z,97980.73
2022-07-31T21:30:04.577Z,97984.43
2022-07-31T21:33:08.619Z,97981.55
2022-07-31T21:36:13.961Z,97980.14
2022-07-31T21:39:18.702Z,97981.90
2022-07-31T21:42:22.841Z,97977.73
2022-07-31T21:45:30.348Z,97980.77
2022-07-31T21:48:53.055Z,97976.00
2022-07-31T21:51:56.577Z,97980.47
2022-07-31T21:55:04.045Z,97982.34
2022-07-31T21:58:08.642Z,97983.05
2022-07-31T22:01:12.006Z,97987.13
2022-07-31T22:04:15.106Z,97985.70
2022-07-31T22:07:33.473Z,97986.73
2022-07-31T22:10:36.856Z,97991.61
2022-07-31T22:13:40.147Z,97992.05
2022-07-31T22:16:43.128Z,97994.17
2022-07-31T22:19:48.890Z,97996.54
2022-07-31T22:22:52.032Z,97997.08
2022-07-31T22:25:55.508Z,97994.37
2022-07-31T22:28:58.936Z,97994.29
2022-07-31T22:32:02.016Z,97996.40
2022-07-31T22:35:05.896Z,98000.45
2022-07-31T22:38:11.128Z,97997.98
2022-07-31T22:41:14.156Z,97998.21
2022-07-31T22:44:18.999Z,97999.88
2022-07-31T22:47:27.294Z,98004.38
2022-07-31T22:50:30.346Z,98000.58
2022-07-31T22:53:34.963Z,98003.05
2022-07-31T22:56:37.932Z,97999.05
2022-07-31T22:59:41.204Z,97993.65
2022-07-31T23:02:44.420Z,97990.05
2022-07-31T23:06:13.150Z,97993.20
2022-07-31T23:09:10.281Z,97990.24
2022-07-31T23:12:13.267Z,97994.38
2022-07-31T23:15:16.197Z,97997.30
2022-07-31T23:18:19.348Z,97996.86
2022-07-31T23:21:22.948Z,98001.94
2022-07-31T23:24:25.883Z,98005.06
2022-07-31T23:27:29.022Z,98006.00
2022-07-31T23:30:31.897Z,98008.20
2022-07-31T23:33:34.787Z,98008.39
2022-07-31T23:36:37.664Z,98012.58
2022-07-31T23:39:40.554Z,98012.54
2022-07-31T23:42:43.428Z,98017.09
2022-07-31T23:45:46.316Z,98014.05
2022-07-31T23:48:49.561Z,98013.76
2022-07-31T23:51:52.593Z,98011.90
2022-07-31T23:54:55.469Z,98012.05
2022-07-31T23:57:58.371Z,98011.48
